KPGD/PGD METAR and TAF weather

Enter ICAO airport designator
Station Type Date Time Source
KPGD METAR 2021/09/28 02:53 UTC NOAA

KPGD 280253Z AUTO 08008KT 10SM CLR 24/19 A3007 RMK AO2 SLP181 T02440194 50010


Station Type Date Time Source
KPGD Decoded METAR 2021/09/28 02:53 UTC NOAA

PUNTA GORDA CHARLOTTE COUNTY, FL, United States (KPGD) 26-55N 82-00W 7M
Sep 27, 2021 - 10:53 PM EDT / 2021.09.28 0253 UTC
Wind: from the E (080 degrees) at 9 MPH (8 KT):0
Visibility: 10 mile(s):0
Sky conditions: clear
Temperature: 75.9 F (24.4 C)
Dew Point: 66.9 F (19.4 C)
Relative Humidity: 73%
Pressure (altimeter): 30.07 in. Hg (1018 hPa)
Pressure tendency: 0.03 inches (1.0 hPa) higher than three hours ago
ob: KPGD 280253Z AUTO 08008KT 10SM CLR 24/19 A3007 RMK AO2 SLP181 T02440194 50010
cycle: 3

Station Type Date Time Source
KPGD TAF 2021/09/27 18:22 UTC NOAA

TAF KPGD 271720Z 2718/2818 04011KT P6SM FEW040 FEW250
FM280200 VRB04KT P6SM SKC
FM281500 06007KT P6SM FEW030 FEW250

Example: see airport list